Terminal Aerodrome Forecast
Issued by NWS Pocatello, ID

Home | Current Version | Previous Version | Text Only | Print | Product List | Glossary On
Versions: 1 2 3 4 5 6 7 8 9 10 11 12 13 14 15 16 17 18 19 20 21 22 23 24 25 26 27 28 29
844
FTUS45 KPIH 091558 AAD
TAFPIH
TAF AMD
KPIH 091558Z 0916/1012 05006KT 2SM BR BKN006
      TEMPO 0916/0917 1/2SM FZFG BKN002
     FM091800 04006KT 5SM BR BKN006
     FM100300 VRB03KT 1SM BR OVC003=

USA.gov is the U.S. government's official web portal to all federal, state and local government web resources and services.